sensor_id;sensor_type;location;lat;lon;timestamp;temperature;humidity
5850;DHT22;2951;47.712;9.400;2023-10-13T00:01:09;14.40;99.90
5850;DHT22;2951;47.712;9.400;2023-10-13T00:03:38;14.40;99.90
5850;DHT22;2951;47.712;9.400;2023-10-13T00:06:06;14.30;99.90
5850;DHT22;2951;47.712;9.400;2023-10-13T00:08:33;14.30;99.90
5850;DHT22;2951;47.712;9.400;2023-10-13T00:10:59;14.20;99.90
5850;DHT22;2951;47.712;9.400;2023-10-13T00:13:27;14.10;99.90
5850;DHT22;2951;47.712;9.400;2023-10-13T00:15:57;14.10;99.90
5850;DHT22;2951;47.712;9.400;2023-10-13T00:18:30;14.00;99.90
5850;DHT22;2951;47.712;9.400;2023-10-13T00:21:03;13.90;99.90
5850;DHT22;2951;47.712;9.400;2023-10-13T00:23:39;13.90;99.90
5850;DHT22;2951;47.712;9.400;2023-10-13T00:26:09;13.80;99.90
5850;DHT22;2951;47.712;9.400;2023-10-13T00:28:36;13.70;99.90
5850;DHT22;2951;47.712;9.400;2023-10-13T00:31:11;13.70;99.90
5850;DHT22;2951;47.712;9.400;2023-10-13T00:33:38;13.70;99.90
5850;DHT22;2951;47.712;9.400;2023-10-13T00:36:07;13.50;99.90
5850;DHT22;2951;47.712;9.400;2023-10-13T00:38:35;13.40;99.90
5850;DHT22;2951;47.712;9.400;2023-10-13T00:41:02;13.50;99.90
5850;DHT22;2951;47.712;9.400;2023-10-13T00:43:47;13.50;99.90
5850;DHT22;2951;47.712;9.400;2023-10-13T00:46:33;13.40;99.90
5850;DHT22;2951;47.712;9.400;2023-10-13T00:49:03;13.30;99.90
5850;DHT22;2951;47.712;9.400;2023-10-13T00:51:35;13.20;99.90
5850;DHT22;2951;47.712;9.400;2023-10-13T00:54:03;13.30;99.90
5850;DHT22;2951;47.712;9.400;2023-10-13T00:56:34;13.20;99.90
5850;DHT22;2951;47.712;9.400;2023-10-13T00:59:08;13.20;99.90
5850;DHT22;2951;47.712;9.400;2023-10-13T01:01:36;13.20;99.90
5850;DHT22;2951;47.712;9.400;2023-10-13T01:04:03;13.10;99.90
5850;DHT22;2951;47.712;9.400;2023-10-13T01:06:36;13.10;99.90
5850;DHT22;2951;47.712;9.400;2023-10-13T01:11:42;13.10;99.90
5850;DHT22;2951;47.712;9.400;2023-10-13T01:14:12;13.10;99.90
5850;DHT22;2951;47.712;9.400;2023-10-13T01:16:41;13.10;99.90
5850;DHT22;2951;47.712;9.400;2023-10-13T01:19:13;13.10;99.90
5850;DHT22;2951;47.712;9.400;2023-10-13T01:21:43;13.00;99.90
5850;DHT22;2951;47.712;9.400;2023-10-13T01:24:17;13.00;99.90
5850;DHT22;2951;47.712;9.400;2023-10-13T01:26:53;13.00;99.90
5850;DHT22;2951;47.712;9.400;2023-10-13T01:29:19;12.90;99.90
5850;DHT22;2951;47.712;9.400;2023-10-13T01:31:52;12.80;99.90
5850;DHT22;2951;47.712;9.400;2023-10-13T01:34:23;12.70;99.90
5850;DHT22;2951;47.712;9.400;2023-10-13T01:36:50;12.70;99.90
5850;DHT22;2951;47.712;9.400;2023-10-13T01:39:18;12.60;99.90
5850;DHT22;2951;47.712;9.400;2023-10-13T01:41:46;12.60;99.90
5850;DHT22;2951;47.712;9.400;2023-10-13T01:44:13;12.60;99.90
5850;DHT22;2951;47.712;9.400;2023-10-13T01:46:41;12.70;99.90
5850;DHT22;2951;47.712;9.400;2023-10-13T01:49:18;12.70;99.90
5850;DHT22;2951;47.712;9.400;2023-10-13T01:51:48;12.70;99.90
5850;DHT22;2951;47.712;9.400;2023-10-13T01:54:15;12.70;99.90
5850;DHT22;2951;47.712;9.400;2023-10-13T01:56:42;12.60;99.90
5850;DHT22;2951;47.712;9.400;2023-10-13T01:59:10;12.50;99.90
5850;DHT22;2951;47.712;9.400;2023-10-13T02:01:37;12.40;99.90
5850;DHT22;2951;47.712;9.400;2023-10-13T02:04:04;12.40;99.90
5850;DHT22;2951;47.712;9.400;2023-10-13T02:06:31;12.40;99.90
5850;DHT22;2951;47.712;9.400;2023-10-13T02:09:03;12.40;99.90
5850;DHT22;2951;47.712;9.400;2023-10-13T02:11:53;12.30;99.90
5850;DHT22;2951;47.712;9.400;2023-10-13T02:14:21;12.30;99.90
5850;DHT22;2951;47.712;9.400;2023-10-13T02:16:52;12.30;99.90
5850;DHT22;2951;47.712;9.400;2023-10-13T02:19:39;12.30;99.90
5850;DHT22;2951;47.712;9.400;2023-10-13T02:22:12;12.10;99.90
5850;DHT22;2951;47.712;9.400;2023-10-13T02:24:51;12.00;99.90
5850;DHT22;2951;47.712;9.400;2023-10-13T02:27:19;11.80;99.90
5850;DHT22;2951;47.712;9.400;2023-10-13T02:29:49;11.80;99.90
5850;DHT22;2951;47.712;9.400;2023-10-13T02:32:18;11.70;99.90
5850;DHT22;2951;47.712;9.400;2023-10-13T02:34:45;11.50;99.90
5850;DHT22;2951;47.712;9.400;2023-10-13T02:37:12;11.40;99.90
5850;DHT22;2951;47.712;9.400;2023-10-13T02:39:40;11.50;99.90
5850;DHT22;2951;47.712;9.400;2023-10-13T02:42:08;11.60;99.90
5850;DHT22;2951;47.712;9.400;2023-10-13T02:44:34;11.70;99.90
5850;DHT22;2951;47.712;9.400;2023-10-13T02:47:03;11.70;99.90
5850;DHT22;2951;47.712;9.400;2023-10-13T02:49:41;11.70;99.90
5850;DHT22;2951;47.712;9.400;2023-10-13T02:52:15;11.70;99.90
5850;DHT22;2951;47.712;9.400;2023-10-13T02:54:42;11.70;99.90
5850;DHT22;2951;47.712;9.400;2023-10-13T02:57:14;11.70;99.90
5850;DHT22;2951;47.712;9.400;2023-10-13T02:59:42;11.80;99.90
5850;DHT22;2951;47.712;9.400;2023-10-13T03:02:22;11.80;99.90
5850;DHT22;2951;47.712;9.400;2023-10-13T03:04:53;11.80;99.90
5850;DHT22;2951;47.712;9.400;2023-10-13T03:07:26;11.80;99.90
5850;DHT22;2951;47.712;9.400;2023-10-13T03:09:58;11.80;99.90
5850;DHT22;2951;47.712;9.400;2023-10-13T03:12:27;11.70;99.90
5850;DHT22;2951;47.712;9.400;2023-10-13T03:15:00;11.70;99.90
5850;DHT22;2951;47.712;9.400;2023-10-13T03:17:42;11.70;99.90
5850;DHT22;2951;47.712;9.400;2023-10-13T03:20:12;11.70;99.90
5850;DHT22;2951;47.712;9.400;2023-10-13T03:22:40;11.70;99.90
5850;DHT22;2951;47.712;9.400;2023-10-13T03:25:12;11.70;99.90
5850;DHT22;2951;47.712;9.400;2023-10-13T03:27:47;11.50;99.90
5850;DHT22;2951;47.712;9.400;2023-10-13T03:30:16;11.50;99.90
5850;DHT22;2951;47.712;9.400;2023-10-13T03:32:43;11.60;99.90
5850;DHT22;2951;47.712;9.400;2023-10-13T03:35:15;11.60;99.90
5850;DHT22;2951;47.712;9.400;2023-10-13T03:37:51;11.30;99.90
5850;DHT22;2951;47.712;9.400;2023-10-13T03:40:18;11.20;99.90
5850;DHT22;2951;47.712;9.400;2023-10-13T03:42:55;11.30;99.90
5850;DHT22;2951;47.712;9.400;2023-10-13T03:45:38;11.20;99.90
5850;DHT22;2951;47.712;9.400;2023-10-13T03:48:15;11.20;99.90
5850;DHT22;2951;47.712;9.400;2023-10-13T03:50:54;11.30;99.90
5850;DHT22;2951;47.712;9.400;2023-10-13T03:53:37;11.40;99.90
5850;DHT22;2951;47.712;9.400;2023-10-13T03:56:20;11.40;99.90
5850;DHT22;2951;47.712;9.400;2023-10-13T03:59:07;11.40;99.90
5850;DHT22;2951;47.712;9.400;2023-10-13T04:01:38;11.40;99.90
5850;DHT22;2951;47.712;9.400;2023-10-13T04:04:14;11.40;99.90
5850;DHT22;2951;47.712;9.400;2023-10-13T04:06:43;11.40;99.90
5850;DHT22;2951;47.712;9.400;2023-10-13T04:09:22;11.20;99.90
5850;DHT22;2951;47.712;9.400;2023-10-13T04:11:58;11.30;99.90
5850;DHT22;2951;47.712;9.400;2023-10-13T04:14:32;11.20;99.90
5850;DHT22;2951;47.712;9.400;2023-10-13T04:17:17;11.20;99.90
5850;DHT22;2951;47.712;9.400;2023-10-13T04:19:54;11.20;99.90
5850;DHT22;2951;47.712;9.400;2023-10-13T04:22:35;11.10;99.90
5850;DHT22;2951;47.712;9.400;2023-10-13T04:25:17;11.10;99.90
5850;DHT22;2951;47.712;9.400;2023-10-13T04:28:03;11.10;99.90
5850;DHT22;2951;47.712;9.400;2023-10-13T04:33:30;11.10;99.90
5850;DHT22;2951;47.712;9.400;2023-10-13T04:36:19;11.10;99.90
5850;DHT22;2951;47.712;9.400;2023-10-13T04:38:52;11.10;99.90
5850;DHT22;2951;47.712;9.400;2023-10-13T04:41:31;11.00;99.90
5850;DHT22;2951;47.712;9.400;2023-10-13T04:44:14;11.00;99.90
5850;DHT22;2951;47.712;9.400;2023-10-13T04:46:59;11.00;99.90
5850;DHT22;2951;47.712;9.400;2023-10-13T04:49:27;11.00;99.90
5850;DHT22;2951;47.712;9.400;2023-10-13T04:52:09;11.00;99.90
5850;DHT22;2951;47.712;9.400;2023-10-13T04:54:37;11.00;99.90
5850;DHT22;2951;47.712;9.400;2023-10-13T04:57:20;11.00;99.90
5850;DHT22;2951;47.712;9.400;2023-10-13T04:59:52;11.10;99.90
5850;DHT22;2951;47.712;9.400;2023-10-13T05:02:39;11.10;99.90
5850;DHT22;2951;47.712;9.400;2023-10-13T05:07:52;11.10;99.90
5850;DHT22;2951;47.712;9.400;2023-10-13T05:10:37;11.10;99.90
5850;DHT22;2951;47.712;9.400;2023-10-13T05:13:23;11.10;99.90
5850;DHT22;2951;47.712;9.400;2023-10-13T05:16:08;10.90;99.90
5850;DHT22;2951;47.712;9.400;2023-10-13T05:18:54;10.90;99.90
5850;DHT22;2951;47.712;9.400;2023-10-13T05:21:41;10.90;99.90
5850;DHT22;2951;47.712;9.400;2023-10-13T05:24:26;11.00;99.90
5850;DHT22;2951;47.712;9.400;2023-10-13T05:27:11;11.00;99.90
5850;DHT22;2951;47.712;9.400;2023-10-13T05:29:57;11.00;99.90
5850;DHT22;2951;47.712;9.400;2023-10-13T05:32:42;11.10;99.90
5850;DHT22;2951;47.712;9.400;2023-10-13T05:35:30;11.00;99.90
5850;DHT22;2951;47.712;9.400;2023-10-13T05:38:15;11.00;99.90
5850;DHT22;2951;47.712;9.400;2023-10-13T05:41:01;10.90;99.90
5850;DHT22;2951;47.712;9.400;2023-10-13T05:43:50;11.00;99.90
5850;DHT22;2951;47.712;9.400;2023-10-13T05:46:36;10.90;99.90
5850;DHT22;2951;47.712;9.400;2023-10-13T05:49:06;10.90;99.90
5850;DHT22;2951;47.712;9.400;2023-10-13T05:51:45;11.00;99.90
5850;DHT22;2951;47.712;9.400;2023-10-13T05:54:26;11.00;99.90
5850;DHT22;2951;47.712;9.400;2023-10-13T05:57:11;11.10;99.90
5850;DHT22;2951;47.712;9.400;2023-10-13T05:59:57;11.00;99.90
5850;DHT22;2951;47.712;9.400;2023-10-13T06:02:44;11.00;99.90
5850;DHT22;2951;47.712;9.400;2023-10-13T06:05:30;11.10;99.90
5850;DHT22;2951;47.712;9.400;2023-10-13T06:08:16;11.10;99.90
5850;DHT22;2951;47.712;9.400;2023-10-13T06:11:02;11.10;99.90
5850;DHT22;2951;47.712;9.400;2023-10-13T06:13:47;11.20;99.90
5850;DHT22;2951;47.712;9.400;2023-10-13T06:16:35;11.30;99.90
5850;DHT22;2951;47.712;9.400;2023-10-13T06:19:20;11.30;99.90
5850;DHT22;2951;47.712;9.400;2023-10-13T06:22:06;11.40;99.90
5850;DHT22;2951;47.712;9.400;2023-10-13T06:24:52;11.50;99.90
5850;DHT22;2951;47.712;9.400;2023-10-13T06:27:39;11.60;99.90
5850;DHT22;2951;47.712;9.400;2023-10-13T06:30:24;11.60;99.90
5850;DHT22;2951;47.712;9.400;2023-10-13T06:32:53;11.70;99.90
5850;DHT22;2951;47.712;9.400;2023-10-13T06:35:20;11.80;99.90
5850;DHT22;2951;47.712;9.400;2023-10-13T06:37:50;12.00;99.90
5850;DHT22;2951;47.712;9.400;2023-10-13T06:40:19;12.00;99.90
5850;DHT22;2951;47.712;9.400;2023-10-13T06:42:58;12.10;99.90
5850;DHT22;2951;47.712;9.400;2023-10-13T06:45:43;12.20;99.90
5850;DHT22;2951;47.712;9.400;2023-10-13T06:48:19;12.30;99.90
5850;DHT22;2951;47.712;9.400;2023-10-13T06:50:49;12.50;99.90
5850;DHT22;2951;47.712;9.400;2023-10-13T06:53:19;12.60;99.90
5850;DHT22;2951;47.712;9.400;2023-10-13T06:55:46;12.70;99.90
5850;DHT22;2951;47.712;9.400;2023-10-13T06:58:22;12.90;99.90
5850;DHT22;2951;47.712;9.400;2023-10-13T07:00:51;13.00;99.90
5850;DHT22;2951;47.712;9.400;2023-10-13T07:03:22;13.20;99.90
5850;DHT22;2951;47.712;9.400;2023-10-13T07:05:49;13.30;99.90
5850;DHT22;2951;47.712;9.400;2023-10-13T07:08:15;13.50;99.90
5850;DHT22;2951;47.712;9.400;2023-10-13T07:10:55;13.70;99.90
5850;DHT22;2951;47.712;9.400;2023-10-13T07:13:29;13.80;99.90
5850;DHT22;2951;47.712;9.400;2023-10-13T07:15:56;14.00;99.90
5850;DHT22;2951;47.712;9.400;2023-10-13T07:18:42;14.10;99.90
5850;DHT22;2951;47.712;9.400;2023-10-13T07:21:17;14.20;99.90
5850;DHT22;2951;47.712;9.400;2023-10-13T07:23:52;14.20;99.90
5850;DHT22;2951;47.712;9.400;2023-10-13T07:26:27;14.30;99.90
5850;DHT22;2951;47.712;9.400;2023-10-13T07:28:55;14.30;99.90
5850;DHT22;2951;47.712;9.400;2023-10-13T07:31:22;14.40;99.90
5850;DHT22;2951;47.712;9.400;2023-10-13T07:33:57;14.50;99.90
5850;DHT22;2951;47.712;9.400;2023-10-13T07:36:31;14.60;99.90
5850;DHT22;2951;47.712;9.400;2023-10-13T07:39:06;14.60;99.90
5850;DHT22;2951;47.712;9.400;2023-10-13T07:41:49;14.60;99.90
5850;DHT22;2951;47.712;9.400;2023-10-13T07:44:21;14.60;99.90
5850;DHT22;2951;47.712;9.400;2023-10-13T07:46:52;14.50;99.90
5850;DHT22;2951;47.712;9.400;2023-10-13T07:49:27;14.60;99.90
5850;DHT22;2951;47.712;9.400;2023-10-13T07:52:00;14.60;99.90
5850;DHT22;2951;47.712;9.400;2023-10-13T07:54:42;14.70;99.90
5850;DHT22;2951;47.712;9.400;2023-10-13T07:57:09;14.80;99.90
5850;DHT22;2951;47.712;9.400;2023-10-13T07:59:41;14.90;99.90
5850;DHT22;2951;47.712;9.400;2023-10-13T08:02:19;15.00;99.90
5850;DHT22;2951;47.712;9.400;2023-10-13T08:05:09;15.20;99.90
5850;DHT22;2951;47.712;9.400;2023-10-13T08:07:37;15.30;99.90
5850;DHT22;2951;47.712;9.400;2023-10-13T08:10:06;15.40;99.90
5850;DHT22;2951;47.712;9.400;2023-10-13T08:12:36;15.50;99.90
5850;DHT22;2951;47.712;9.400;2023-10-13T08:15:08;15.70;99.90
5850;DHT22;2951;47.712;9.400;2023-10-13T08:17:53;15.70;99.90
5850;DHT22;2951;47.712;9.400;2023-10-13T08:20:20;15.90;99.90
5850;DHT22;2951;47.712;9.400;2023-10-13T08:22:48;16.00;99.90
5850;DHT22;2951;47.712;9.400;2023-10-13T08:25:15;16.10;99.90
5850;DHT22;2951;47.712;9.400;2023-10-13T08:27:51;16.10;99.90
5850;DHT22;2951;47.712;9.400;2023-10-13T08:30:36;16.20;99.90
5850;DHT22;2951;47.712;9.400;2023-10-13T08:33:19;16.40;99.90
5850;DHT22;2951;47.712;9.400;2023-10-13T08:35:50;16.50;99.90
5850;DHT22;2951;47.712;9.400;2023-10-13T08:38:55;16.60;99.90
5850;DHT22;2951;47.712;9.400;2023-10-13T08:41:22;16.70;99.90
5850;DHT22;2951;47.712;9.400;2023-10-13T08:43:49;16.80;99.90
5850;DHT22;2951;47.712;9.400;2023-10-13T08:46:20;16.90;99.90
5850;DHT22;2951;47.712;9.400;2023-10-13T08:51:52;17.30;99.90
5850;DHT22;2951;47.712;9.400;2023-10-13T08:54:32;17.40;99.90
5850;DHT22;2951;47.712;9.400;2023-10-13T08:57:12;17.50;99.90
5850;DHT22;2951;47.712;9.400;2023-10-13T09:00:08;17.60;99.90
5850;DHT22;2951;47.712;9.400;2023-10-13T09:03:13;17.70;99.90
5850;DHT22;2951;47.712;9.400;2023-10-13T09:05:56;17.80;99.90
5850;DHT22;2951;47.712;9.400;2023-10-13T09:08:33;17.90;99.90
5850;DHT22;2951;47.712;9.400;2023-10-13T09:11:10;18.10;99.90
5850;DHT22;2951;47.712;9.400;2023-10-13T09:13:39;18.20;99.90
5850;DHT22;2951;47.712;9.400;2023-10-13T09:16:12;18.20;99.90
5850;DHT22;2951;47.712;9.400;2023-10-13T09:18:48;18.30;99.90
5850;DHT22;2951;47.712;9.400;2023-10-13T09:21:18;18.30;99.90
5850;DHT22;2951;47.712;9.400;2023-10-13T09:24:05;18.40;99.90
5850;DHT22;2951;47.712;9.400;2023-10-13T09:26:49;18.40;98.60
5850;DHT22;2951;47.712;9.400;2023-10-13T09:29:20;18.50;98.40
5850;DHT22;2951;47.712;9.400;2023-10-13T09:31:49;18.50;99.90
5850;DHT22;2951;47.712;9.400;2023-10-13T09:34:26;18.70;99.60
5850;DHT22;2951;47.712;9.400;2023-10-13T09:36:57;18.80;99.50
5850;DHT22;2951;47.712;9.400;2023-10-13T09:39:25;18.80;99.90
5850;DHT22;2951;47.712;9.400;2023-10-13T09:42:01;18.90;99.90
5850;DHT22;2951;47.712;9.400;2023-10-13T09:44:30;19.00;99.90
5850;DHT22;2951;47.712;9.400;2023-10-13T09:47:01;19.10;99.90
5850;DHT22;2951;47.712;9.400;2023-10-13T09:49:37;19.20;99.90
5850;DHT22;2951;47.712;9.400;2023-10-13T09:52:15;19.30;99.90
5850;DHT22;2951;47.712;9.400;2023-10-13T09:57:37;19.50;99.90
5850;DHT22;2951;47.712;9.400;2023-10-13T10:00:15;19.50;99.90
5850;DHT22;2951;47.712;9.400;2023-10-13T10:03:01;19.70;99.20
5850;DHT22;2951;47.712;9.400;2023-10-13T10:05:43;19.90;99.90
5850;DHT22;2951;47.712;9.400;2023-10-13T10:08:23;20.00;99.90
5850;DHT22;2951;47.712;9.400;2023-10-13T10:16:21;20.00;99.90
5850;DHT22;2951;47.712;9.400;2023-10-13T10:18:59;19.90;99.90
5850;DHT22;2951;47.712;9.400;2023-10-13T10:21:33;19.90;99.90
5850;DHT22;2951;47.712;9.400;2023-10-13T10:24:02;20.10;99.90
5850;DHT22;2951;47.712;9.400;2023-10-13T10:26:36;20.20;99.90
5850;DHT22;2951;47.712;9.400;2023-10-13T10:29:10;20.10;99.90
5850;DHT22;2951;47.712;9.400;2023-10-13T10:31:38;20.20;99.90
5850;DHT22;2951;47.712;9.400;2023-10-13T10:34:14;20.20;99.90
5850;DHT22;2951;47.712;9.400;2023-10-13T10:36:42;20.20;99.90
5850;DHT22;2951;47.712;9.400;2023-10-13T10:39:09;20.30;99.90
5850;DHT22;2951;47.712;9.400;2023-10-13T10:41:38;20.50;99.90
5850;DHT22;2951;47.712;9.400;2023-10-13T10:44:24;20.50;99.90
5850;DHT22;2951;47.712;9.400;2023-10-13T10:47:13;20.70;99.90
5850;DHT22;2951;47.712;9.400;2023-10-13T10:50:07;20.90;99.90
5850;DHT22;2951;47.712;9.400;2023-10-13T10:52:34;20.90;99.90
5850;DHT22;2951;47.712;9.400;2023-10-13T10:55:06;21.10;99.90
5850;DHT22;2951;47.712;9.400;2023-10-13T10:57:40;21.10;99.90
5850;DHT22;2951;47.712;9.400;2023-10-13T11:00:28;21.20;99.90
5850;DHT22;2951;47.712;9.400;2023-10-13T11:03:12;21.20;99.90
5850;DHT22;2951;47.712;9.400;2023-10-13T11:05:43;21.20;99.90
5850;DHT22;2951;47.712;9.400;2023-10-13T11:08:20;21.30;99.90
5850;DHT22;2951;47.712;9.400;2023-10-13T11:10:51;21.40;99.90
5850;DHT22;2951;47.712;9.400;2023-10-13T11:13:18;21.40;99.90
5850;DHT22;2951;47.712;9.400;2023-10-13T11:15:48;21.70;99.90
5850;DHT22;2951;47.712;9.400;2023-10-13T11:18:17;21.70;99.90
5850;DHT22;2951;47.712;9.400;2023-10-13T11:20:50;21.60;99.90
5850;DHT22;2951;47.712;9.400;2023-10-13T11:23:21;21.70;99.90
5850;DHT22;2951;47.712;9.400;2023-10-13T11:25:58;21.70;99.90
5850;DHT22;2951;47.712;9.400;2023-10-13T11:28:30;21.70;99.90
5850;DHT22;2951;47.712;9.400;2023-10-13T11:30:58;21.60;99.90
5850;DHT22;2951;47.712;9.400;2023-10-13T11:33:26;21.70;99.90
5850;DHT22;2951;47.712;9.400;2023-10-13T11:35:58;21.70;99.90
5850;DHT22;2951;47.712;9.400;2023-10-13T11:38:32;21.70;99.90
5850;DHT22;2951;47.712;9.400;2023-10-13T11:41:14;21.90;99.90
5850;DHT22;2951;47.712;9.400;2023-10-13T11:43:43;22.00;99.90
5850;DHT22;2951;47.712;9.400;2023-10-13T11:46:10;21.90;99.90
5850;DHT22;2951;47.712;9.400;2023-10-13T11:48:37;21.90;99.90
5850;DHT22;2951;47.712;9.400;2023-10-13T11:51:05;22.00;99.90
5850;DHT22;2951;47.712;9.400;2023-10-13T11:53:35;22.00;99.90
5850;DHT22;2951;47.712;9.400;2023-10-13T11:56:03;22.10;99.90
5850;DHT22;2951;47.712;9.400;2023-10-13T11:58:36;22.20;99.90
5850;DHT22;2951;47.712;9.400;2023-10-13T12:01:03;22.20;99.90
5850;DHT22;2951;47.712;9.400;2023-10-13T12:03:40;22.10;99.90
5850;DHT22;2951;47.712;9.400;2023-10-13T12:06:26;22.20;99.90
5850;DHT22;2951;47.712;9.400;2023-10-13T12:09:15;22.20;99.90
5850;DHT22;2951;47.712;9.400;2023-10-13T12:11:45;22.30;99.90
5850;DHT22;2951;47.712;9.400;2023-10-13T12:14:12;22.40;99.90
5850;DHT22;2951;47.712;9.400;2023-10-13T12:16:43;22.40;99.90
5850;DHT22;2951;47.712;9.400;2023-10-13T12:19:22;22.40;99.90
5850;DHT22;2951;47.712;9.400;2023-10-13T12:21:50;22.40;99.90
5850;DHT22;2951;47.712;9.400;2023-10-13T12:24:21;22.40;99.90
5850;DHT22;2951;47.712;9.400;2023-10-13T12:26:49;22.50;99.90
5850;DHT22;2951;47.712;9.400;2023-10-13T12:29:24;22.50;99.90
5850;DHT22;2951;47.712;9.400;2023-10-13T12:31:55;22.50;99.90
5850;DHT22;2951;47.712;9.400;2023-10-13T12:34:36;22.50;99.90
5850;DHT22;2951;47.712;9.400;2023-10-13T12:37:21;22.40;99.90
5850;DHT22;2951;47.712;9.400;2023-10-13T12:40:06;22.70;99.90
5850;DHT22;2951;47.712;9.400;2023-10-13T12:42:52;22.70;99.90
5850;DHT22;2951;47.712;9.400;2023-10-13T12:45:40;22.70;99.90
5850;DHT22;2951;47.712;9.400;2023-10-13T12:48:29;22.80;99.90
5850;DHT22;2951;47.712;9.400;2023-10-13T12:51:16;22.80;99.90
5850;DHT22;2951;47.712;9.400;2023-10-13T12:53:51;22.90;99.90
5850;DHT22;2951;47.712;9.400;2023-10-13T12:56:18;23.00;99.90
5850;DHT22;2951;47.712;9.400;2023-10-13T12:58:52;23.10;99.90
5850;DHT22;2951;47.712;9.400;2023-10-13T13:01:19;23.10;99.90
5850;DHT22;2951;47.712;9.400;2023-10-13T13:03:47;23.30;99.90
5850;DHT22;2951;47.712;9.400;2023-10-13T13:06:22;23.40;99.90
5850;DHT22;2951;47.712;9.400;2023-10-13T13:08:54;23.50;99.90
5850;DHT22;2951;47.712;9.400;2023-10-13T13:11:21;23.60;99.90
5850;DHT22;2951;47.712;9.400;2023-10-13T13:13:50;23.70;99.90
5850;DHT22;2951;47.712;9.400;2023-10-13T13:16:18;23.90;99.90
5850;DHT22;2951;47.712;9.400;2023-10-13T13:18:46;24.00;99.90
5850;DHT22;2951;47.712;9.400;2023-10-13T13:21:13;24.10;99.90
5850;DHT22;2951;47.712;9.400;2023-10-13T13:23:46;24.20;99.90
5850;DHT22;2951;47.712;9.400;2023-10-13T13:26:13;24.30;99.90
5850;DHT22;2951;47.712;9.400;2023-10-13T13:28:44;24.20;99.90
5850;DHT22;2951;47.712;9.400;2023-10-13T13:31:14;24.30;99.90
5850;DHT22;2951;47.712;9.400;2023-10-13T13:33:41;24.40;99.90
5850;DHT22;2951;47.712;9.400;2023-10-13T13:36:11;24.50;99.90
5850;DHT22;2951;47.712;9.400;2023-10-13T13:38:43;24.50;99.90
5850;DHT22;2951;47.712;9.400;2023-10-13T13:41:15;24.50;99.90
5850;DHT22;2951;47.712;9.400;2023-10-13T13:43:47;24.40;99.90
5850;DHT22;2951;47.712;9.400;2023-10-13T13:46:17;24.40;99.90
5850;DHT22;2951;47.712;9.400;2023-10-13T13:48:45;24.50;99.90
5850;DHT22;2951;47.712;9.400;2023-10-13T13:51:14;24.50;99.90
5850;DHT22;2951;47.712;9.400;2023-10-13T13:53:42;24.80;99.90
5850;DHT22;2951;47.712;9.400;2023-10-13T13:56:14;25.30;99.90
5850;DHT22;2951;47.712;9.400;2023-10-13T13:58:46;25.70;99.90
5850;DHT22;2951;47.712;9.400;2023-10-13T14:01:13;25.50;99.90
5850;DHT22;2951;47.712;9.400;2023-10-13T14:03:53;26.10;99.90
5850;DHT22;2951;47.712;9.400;2023-10-13T14:06:24;25.90;99.90
5850;DHT22;2951;47.712;9.400;2023-10-13T14:08:51;25.70;99.90
5850;DHT22;2951;47.712;9.400;2023-10-13T14:11:26;25.80;99.90
5850;DHT22;2951;47.712;9.400;2023-10-13T14:14:15;25.60;99.90
5850;DHT22;2951;47.712;9.400;2023-10-13T14:16:51;25.50;99.90
5850;DHT22;2951;47.712;9.400;2023-10-13T14:19:17;25.40;99.90
5850;DHT22;2951;47.712;9.400;2023-10-13T14:24:21;25.70;99.90
5850;DHT22;2951;47.712;9.400;2023-10-13T14:27:00;25.50;99.90
5850;DHT22;2951;47.712;9.400;2023-10-13T14:29:45;25.50;99.90
5850;DHT22;2951;47.712;9.400;2023-10-13T14:32:14;25.40;99.90
5850;DHT22;2951;47.712;9.400;2023-10-13T14:34:45;25.70;99.90
5850;DHT22;2951;47.712;9.400;2023-10-13T14:37:20;25.80;99.90
5850;DHT22;2951;47.712;9.400;2023-10-13T14:39:53;25.70;99.90
5850;DHT22;2951;47.712;9.400;2023-10-13T14:42:27;25.70;99.90
5850;DHT22;2951;47.712;9.400;2023-10-13T14:44:54;25.80;99.90
5850;DHT22;2951;47.712;9.400;2023-10-13T14:47:26;26.60;99.90
5850;DHT22;2951;47.712;9.400;2023-10-13T14:49:55;27.50;99.90
5850;DHT22;2951;47.712;9.400;2023-10-13T14:52:26;27.20;99.90
5850;DHT22;2951;47.712;9.400;2023-10-13T14:54:53;26.40;99.90
5850;DHT22;2951;47.712;9.400;2023-10-13T14:57:23;26.10;99.90
5850;DHT22;2951;47.712;9.400;2023-10-13T14:59:53;26.60;99.90
5850;DHT22;2951;47.712;9.400;2023-10-13T15:02:20;26.10;99.90
5850;DHT22;2951;47.712;9.400;2023-10-13T15:04:48;26.10;99.90
5850;DHT22;2951;47.712;9.400;2023-10-13T15:07:16;26.00;99.90
5850;DHT22;2951;47.712;9.400;2023-10-13T15:09:44;25.60;99.90
5850;DHT22;2951;47.712;9.400;2023-10-13T15:12:11;25.50;99.90
5850;DHT22;2951;47.712;9.400;2023-10-13T15:14:40;25.50;99.90
5850;DHT22;2951;47.712;9.400;2023-10-13T15:17:09;25.60;99.90
5850;DHT22;2951;47.712;9.400;2023-10-13T15:19:36;25.40;99.90
5850;DHT22;2951;47.712;9.400;2023-10-13T15:22:05;25.60;99.90
5850;DHT22;2951;47.712;9.400;2023-10-13T15:24:48;25.80;99.90
5850;DHT22;2951;47.712;9.400;2023-10-13T15:27:35;25.70;99.90
5850;DHT22;2951;47.712;9.400;2023-10-13T15:30:09;26.10;99.90
5850;DHT22;2951;47.712;9.400;2023-10-13T15:32:46;26.30;99.90
5850;DHT22;2951;47.712;9.400;2023-10-13T15:35:16;25.80;99.90
5850;DHT22;2951;47.712;9.400;2023-10-13T15:37:43;25.80;99.90
5850;DHT22;2951;47.712;9.400;2023-10-13T15:40:14;26.30;99.90
5850;DHT22;2951;47.712;9.400;2023-10-13T15:42:45;26.70;99.90
5850;DHT22;2951;47.712;9.400;2023-10-13T15:45:12;26.80;99.90
5850;DHT22;2951;47.712;9.400;2023-10-13T15:47:46;26.70;99.90
5850;DHT22;2951;47.712;9.400;2023-10-13T15:50:37;26.70;99.90
5850;DHT22;2951;47.712;9.400;2023-10-13T15:53:08;26.20;99.90
5850;DHT22;2951;47.712;9.400;2023-10-13T15:55:42;25.40;99.90
5850;DHT22;2951;47.712;9.400;2023-10-13T15:58:12;24.40;99.90
5850;DHT22;2951;47.712;9.400;2023-10-13T16:00:40;23.90;99.90
5850;DHT22;2951;47.712;9.400;2023-10-13T16:03:09;23.30;99.90
5850;DHT22;2951;47.712;9.400;2023-10-13T16:05:39;22.70;99.90
5850;DHT22;2951;47.712;9.400;2023-10-13T16:08:10;22.30;99.90
5850;DHT22;2951;47.712;9.400;2023-10-13T16:10:39;21.90;99.90
5850;DHT22;2951;47.712;9.400;2023-10-13T16:13:05;21.70;99.90
5850;DHT22;2951;47.712;9.400;2023-10-13T16:15:36;21.50;99.90
5850;DHT22;2951;47.712;9.400;2023-10-13T16:18:10;21.20;99.90
5850;DHT22;2951;47.712;9.400;2023-10-13T16:20:37;20.90;99.90
5850;DHT22;2951;47.712;9.400;2023-10-13T16:23:04;20.60;99.90
5850;DHT22;2951;47.712;9.400;2023-10-13T16:25:32;20.30;99.90
5850;DHT22;2951;47.712;9.400;2023-10-13T16:27:58;20.30;99.90
5850;DHT22;2951;47.712;9.400;2023-10-13T16:30:26;20.20;99.90
5850;DHT22;2951;47.712;9.400;2023-10-13T16:32:57;20.10;99.90
5850;DHT22;2951;47.712;9.400;2023-10-13T16:35:24;20.00;99.90
5850;DHT22;2951;47.712;9.400;2023-10-13T16:37:51;19.90;99.90
5850;DHT22;2951;47.712;9.400;2023-10-13T16:40:18;19.70;99.90
5850;DHT22;2951;47.712;9.400;2023-10-13T16:42:45;19.60;99.90
5850;DHT22;2951;47.712;9.400;2023-10-13T16:45:12;19.60;99.90
5850;DHT22;2951;47.712;9.400;2023-10-13T16:47:43;19.40;99.90
5850;DHT22;2951;47.712;9.400;2023-10-13T16:50:12;19.30;99.90
5850;DHT22;2951;47.712;9.400;2023-10-13T16:52:40;19.10;99.90
5850;DHT22;2951;47.712;9.400;2023-10-13T16:55:07;19.00;99.90
5850;DHT22;2951;47.712;9.400;2023-10-13T16:57:35;18.90;99.90
5850;DHT22;2951;47.712;9.400;2023-10-13T17:00:02;18.70;99.90
5850;DHT22;2951;47.712;9.400;2023-10-13T17:02:33;18.50;99.90
5850;DHT22;2951;47.712;9.400;2023-10-13T17:05:01;18.40;99.90
5850;DHT22;2951;47.712;9.400;2023-10-13T17:07:28;18.30;99.90